createdAt,value
2022-11-29T00:00:03.147Z,71.40
2022-11-29T00:02:46.069Z,54.53
2022-11-29T00:05:18.776Z,69.78
2022-11-29T00:07:51.361Z,70.65
2022-11-29T00:10:23.993Z,73.15
2022-11-29T00:12:56.545Z,70.93
2022-11-29T00:15:29.538Z,72.18
2022-11-29T00:18:02.237Z,72.35
2022-11-29T00:20:35.737Z,70.97
2022-11-29T00:23:08.355Z,72.55
2022-11-29T00:25:40.893Z,70.57
2022-11-29T00:28:13.452Z,72.60
2022-11-29T00:30:46.038Z,72.00
2022-11-29T00:33:18.560Z,71.55
2022-11-29T00:35:51.453Z,73.38
2022-11-29T00:38:24.110Z,73.30
2022-11-29T00:40:56.651Z,70.53
2022-11-29T00:43:29.293Z,67.75
2022-11-29T00:46:02.840Z,73.35
2022-11-29T00:48:35.863Z,71.00
2022-11-29T00:51:08.680Z,69.32
2022-11-29T00:53:41.526Z,73.95
2022-11-29T00:56:14.200Z,74.65
2022-11-29T00:58:48.946Z,70.10
2022-11-29T01:01:21.482Z,72.40
2022-11-29T01:03:54.126Z,72.72
2022-11-29T01:06:26.791Z,70.05
2022-11-29T01:08:59.385Z,73.40
2022-11-29T01:11:32.209Z,71.63
2022-11-29T01:14:04.794Z,73.45
2022-11-29T01:16:37.372Z,75.00
2022-11-29T01:19:09.952Z,73.55
2022-11-29T01:21:42.648Z,72.40
2022-11-29T01:24:15.254Z,73.10
2022-11-29T01:26:47.997Z,73.20
2022-11-29T01:29:21.590Z,73.43
2022-11-29T01:31:54.434Z,71.53
2022-11-29T01:34:27.039Z,74.47
2022-11-29T01:36:59.606Z,71.57
2022-11-29T01:39:32.372Z,75.20
2022-11-29T01:42:05.458Z,75.13
2022-11-29T01:44:38.731Z,73.22
2022-11-29T01:47:12.322Z,70.68
2022-11-29T01:49:47.191Z,72.32
2022-11-29T01:52:26.147Z,72.32
2022-11-29T01:55:03.451Z,71.13
2022-11-29T01:57:39.590Z,73.53
2022-11-29T02:00:16.306Z,73.97
2022-11-29T02:02:57.642Z,73.18
2022-11-29T02:05:30.413Z,72.35
2022-11-29T02:08:03.354Z,77.25
2022-11-29T02:10:44.163Z,74.13
2022-11-29T02:13:32.933Z,71.63
2022-11-29T02:16:20.631Z,71.72
2022-11-29T02:19:19.145Z,72.68
2022-11-29T02:22:06.015Z,74.95
2022-11-29T02:24:39.271Z,75.00
2022-11-29T02:27:22.073Z,70.65
2022-11-29T02:30:17.259Z,73.60
2022-11-29T02:33:08.644Z,71.90
2022-11-29T02:36:00.224Z,70.32
2022-11-29T02:38:43.913Z,71.82
2022-11-29T02:41:37.534Z,71.70
2022-11-29T02:44:27.213Z,68.93
2022-11-29T02:47:15.288Z,69.43
2022-11-29T02:49:59.404Z,71.43
2022-11-29T02:52:46.396Z,70.70
2022-11-29T02:55:39.723Z,70.55
2022-11-29T02:58:29.347Z,71.47
2022-11-29T03:01:15.869Z,69.90
2022-11-29T03:04:07.261Z,69.38
2022-11-29T03:06:40.435Z,71.13
2022-11-29T03:09:35.099Z,71.80
2022-11-29T03:12:14.416Z,69.63
2022-11-29T03:14:48.817Z,69.78
2022-11-29T03:17:36.754Z,70.60
2022-11-29T03:20:36.096Z,72.05
2022-11-29T03:23:23.398Z,70.40
2022-11-29T03:26:05.161Z,71.28
2022-11-29T03:28:39.857Z,71.45
2022-11-29T03:31:33.329Z,73.60
2022-11-29T03:34:19.130Z,71.25
2022-11-29T03:37:22.782Z,74.63
2022-11-29T03:40:09.087Z,70.15
2022-11-29T03:42:54.230Z,72.40
2022-11-29T03:45:53.730Z,72.80
2022-11-29T03:48:33.600Z,71.50
2022-11-29T03:51:21.621Z,71.95
2022-11-29T03:54:01.761Z,72.95
2022-11-29T03:56:37.297Z,72.68
2022-11-29T03:59:14.763Z,75.15
2022-11-29T04:02:12.744Z,70.85
2022-11-29T04:05:00.938Z,71.85
2022-11-29T04:07:57.036Z,70.80
2022-11-29T04:10:47.772Z,69.10
2022-11-29T04:13:43.713Z,69.15
2022-11-29T04:16:20.036Z,68.28
2022-11-29T04:19:09.562Z,67.10
2022-11-29T04:21:59.299Z,67.60
2022-11-29T04:24:41.933Z,70.95
2022-11-29T04:27:26.784Z,73.35
2022-11-29T04:30:15.114Z,73.63
2022-11-29T04:33:02.094Z,74.00
2022-11-29T04:35:55.808Z,74.75
2022-11-29T04:38:33.120Z,75.95
2022-11-29T04:41:14.978Z,77.13
2022-11-29T04:44:08.444Z,76.07
2022-11-29T04:46:57.709Z,72.47
2022-11-29T04:49:47.096Z,74.45
2022-11-29T04:52:38.994Z,74.18
2022-11-29T04:55:31.049Z,76.35
2022-11-29T04:58:19.766Z,74.85
2022-11-29T05:01:07.822Z,77.13
2022-11-29T05:03:56.843Z,76.05
2022-11-29T05:06:42.725Z,76.18
2022-11-29T05:09:28.488Z,76.68
2022-11-29T05:12:14.517Z,75.75
2022-11-29T05:15:14.824Z,79.57
2022-11-29T05:18:18.467Z,76.18
2022-11-29T05:21:04.828Z,79.88
2022-11-29T05:23:49.183Z,77.30
2022-11-29T05:26:42.167Z,76.85
2022-11-29T05:29:34.322Z,77.75
2022-11-29T05:32:24.654Z,79.25
2022-11-29T05:35:28.246Z,78.43
2022-11-29T05:38:31.969Z,77.72
2022-11-29T05:41:31.540Z,76.85
2022-11-29T05:44:30.396Z,76.60
2022-11-29T05:47:06.916Z,78.90
2022-11-29T05:49:52.129Z,84.13
2022-11-29T05:52:37.345Z,89.45
2022-11-29T05:55:26.885Z,84.28
2022-11-29T05:58:13.064Z,87.95
2022-11-29T06:00:59.885Z,85.95
2022-11-29T06:03:50.594Z,86.38
2022-11-29T06:06:42.281Z,79.35
2022-11-29T06:09:19.432Z,80.47
2022-11-29T06:11:59.148Z,76.30
2022-11-29T06:14:55.579Z,74.18
2022-11-29T06:17:59.397Z,75.63
2022-11-29T06:20:46.721Z,80.40
2022-11-29T06:23:50.731Z,80.22
2022-11-29T06:26:47.171Z,78.55
2022-11-29T06:29:47.708Z,77.25
2022-11-29T06:32:34.534Z,80.78
2022-11-29T06:35:19.208Z,78.53
2022-11-29T06:37:56.124Z,76.27
2022-11-29T06:40:29.159Z,80.50
2022-11-29T06:43:02.158Z,77.60
2022-11-29T06:45:35.082Z,83.38
2022-11-29T06:48:12.759Z,78.80
2022-11-29T06:51:08.431Z,80.22
2022-11-29T06:53:57.631Z,84.35
2022-11-29T06:56:51.571Z,78.30
2022-11-29T06:59:35.701Z,79.07
2022-11-29T07:02:39.341Z,82.85
2022-11-29T07:05:29.268Z,82.03
2022-11-29T07:08:06.303Z,79.45
2022-11-29T07:10:41.523Z,80.97
2022-11-29T07:16:06.586Z,83.75
2022-11-29T07:19:00.185Z,86.47
2022-11-29T07:22:00.537Z,82.30
2022-11-29T07:24:43.089Z,82.70
2022-11-29T07:27:21.335Z,83.68
2022-11-29T07:30:19.230Z,81.95
2022-11-29T07:33:00.536Z,85.80
2022-11-29T07:35:49.756Z,80.47
2022-11-29T07:38:38.655Z,83.00
2022-11-29T07:41:38.241Z,81.13
2022-11-29T07:44:17.418Z,84.18
2022-11-29T07:46:50.092Z,82.97
2022-11-29T07:49:22.897Z,82.85
2022-11-29T07:51:56.212Z,87.78
2022-11-29T07:54:29.112Z,84.82
2022-11-29T07:57:02.063Z,89.05
2022-11-29T07:59:35.052Z,80.90
2022-11-29T08:02:11.712Z,80.80
2022-11-29T08:04:45.324Z,84.43
2022-11-29T08:07:18.175Z,84.90
2022-11-29T08:09:50.932Z,83.43
2022-11-29T08:12:23.672Z,85.00
2022-11-29T08:14:56.254Z,78.70
2022-11-29T08:17:29.032Z,87.90
2022-11-29T08:20:04.263Z,83.18
2022-11-29T08:22:37.479Z,83.25
2022-11-29T08:25:10.817Z,79.35
2022-11-29T08:27:43.299Z,83.20
2022-11-29T08:30:19.110Z,77.72
2022-11-29T08:32:52.926Z,73.55
2022-11-29T08:35:26.284Z,74.63
2022-11-29T08:37:58.979Z,75.00
2022-11-29T08:40:31.666Z,59.00
2022-11-29T08:43:04.455Z,61.35
2022-11-29T08:45:37.144Z,66.88
2022-11-29T08:48:09.836Z,58.60
2022-11-29T08:50:42.401Z,61.80
2022-11-29T08:53:31.381Z,64.05
2022-11-29T08:56:23.575Z,64.65
2022-11-29T08:58:57.477Z,61.28
2022-11-29T09:01:30.359Z,61.80
2022-11-29T09:04:03.800Z,62.63
2022-11-29T09:06:40.738Z,58.83
2022-11-29T09:09:13.484Z,54.53
2022-11-29T09:11:49.438Z,57.63
2022-11-29T09:14:23.280Z,56.78
2022-11-29T09:16:56.153Z,54.83
2022-11-29T09:19:28.991Z,55.72
2022-11-29T09:22:01.697Z,53.78
2022-11-29T09:24:34.924Z,52.35
2022-11-29T09:27:07.755Z,51.67
2022-11-29T09:29:40.417Z,48.90
2022-11-29T09:32:12.997Z,50.20
2022-11-29T09:34:46.015Z,51.42
2022-11-29T09:37:19.072Z,51.88
2022-11-29T09:39:51.697Z,50.08
2022-11-29T09:42:47.844Z,51.45
2022-11-29T09:45:27.922Z,51.10
2022-11-29T09:48:20.236Z,59.08
2022-11-29T09:51:09.026Z,53.45
2022-11-29T09:54:03.343Z,52.75
2022-11-29T09:56:42.918Z,56.40
2022-11-29T09:59:37.894Z,55.65
2022-11-29T10:02:19.722Z,54.97
2022-11-29T10:05:03.084Z,56.28
2022-11-29T10:07:44.346Z,50.05
2022-11-29T10:10:26.699Z,85.57
2022-11-29T10:13:07.851Z,65.50
2022-11-29T10:15:44.329Z,62.88
2022-11-29T10:18:27.739Z,57.63
2022-11-29T10:21:10.027Z,56.70
2022-11-29T10:23:48.525Z,41.05
2022-11-29T10:26:23.222Z,46.10
2022-11-29T10:31:40.382Z,41.80
2022-11-29T10:34:18.466Z,40.85
2022-11-29T10:36:54.954Z,43.05
2022-11-29T10:39:44.895Z,44.00
2022-11-29T10:42:36.885Z,43.40
2022-11-29T10:45:34.538Z,43.20
2022-11-29T10:48:11.898Z,41.20
2022-11-29T10:50:48.773Z,45.58
2022-11-29T10:53:36.198Z,48.20
2022-11-29T10:56:27.793Z,40.53
2022-11-29T10:59:05.791Z,34.92
2022-11-29T11:01:43.916Z,44.83
2022-11-29T11:04:36.855Z,42.53
2022-11-29T11:07:29.036Z,46.72
2022-11-29T11:10:18.460Z,51.00
2022-11-29T11:13:18.828Z,46.15
2022-11-29T11:16:13.049Z,43.70
2022-11-29T11:18:48.172Z,38.13
2022-11-29T11:23:58.867Z,35.58
2022-11-29T11:26:46.833Z,35.65
2022-11-29T11:29:22.861Z,39.60
2022-11-29T11:31:59.238Z,37.75
2022-11-29T11:34:37.770Z,40.33
2022-11-29T11:37:16.677Z,41.05
2022-11-29T11:39:53.847Z,41.38
2022-11-29T11:42:39.038Z,43.28
2022-11-29T11:45:14.481Z,36.22
2022-11-29T11:47:52.743Z,34.97
2022-11-29T11:50:30.138Z,39.53
2022-11-29T11:53:08.435Z,39.63
2022-11-29T11:55:46.860Z,39.80
2022-11-29T11:58:25.825Z,40.47
2022-11-29T12:01:16.571Z,39.55
2022-11-29T12:04:10.529Z,35.55
2022-11-29T12:07:00.616Z,34.28
2022-11-29T12:09:36.379Z,38.50
2022-11-29T12:12:18.281Z,34.85
2022-11-29T12:15:01.243Z,33.78
2022-11-29T12:17:37.607Z,33.95
2022-11-29T12:20:16.317Z,36.97
2022-11-29T12:23:04.607Z,37.97
2022-11-29T12:25:56.330Z,41.72
2022-11-29T12:28:33.968Z,40.67
2022-11-29T12:31:15.514Z,49.10
2022-11-29T12:33:55.601Z,48.92
2022-11-29T12:36:31.108Z,48.78
2022-11-29T12:39:26.543Z,42.88
2022-11-29T12:42:26.861Z,48.38
2022-11-29T12:45:06.139Z,46.20
2022-11-29T12:47:43.722Z,45.45
2022-11-29T12:50:50.110Z,48.30
2022-11-29T12:53:47.393Z,46.90
2022-11-29T12:56:35.167Z,51.10
2022-11-29T12:59:16.302Z,45.88
2022-11-29T13:01:59.897Z,49.20
2022-11-29T13:04:46.028Z,44.92
2022-11-29T13:07:51.047Z,45.67
2022-11-29T13:10:42.932Z,42.38
2022-11-29T13:13:35.546Z,44.08
2022-11-29T13:16:25.072Z,44.40
2022-11-29T13:19:31.507Z,50.50
2022-11-29T13:22:23.701Z,49.13
2022-11-29T13:25:15.963Z,45.22
2022-11-29T13:28:02.895Z,39.28
2022-11-29T13:30:40.010Z,38.40
2022-11-29T13:33:32.413Z,39.95
2022-11-29T13:36:12.810Z,42.15
2022-11-29T13:38:55.912Z,44.47
2022-11-29T13:41:37.850Z,44.63
2022-11-29T13:44:24.894Z,42.15
2022-11-29T13:47:20.673Z,42.65
2022-11-29T13:50:05.747Z,42.45
2022-11-29T13:52:46.838Z,40.35
2022-11-29T13:55:29.746Z,39.03
2022-11-29T13:58:21.124Z,42.60
2022-11-29T14:00:55.282Z,40.58
2022-11-29T14:03:45.659Z,42.78
2022-11-29T14:06:22.248Z,41.35
2022-11-29T14:09:18.984Z,40.13
2022-11-29T14:12:17.608Z,41.40
2022-11-29T14:14:57.424Z,43.50
2022-11-29T14:17:36.158Z,42.17
2022-11-29T14:20:25.438Z,40.28
2022-11-29T14:23:08.016Z,39.90
2022-11-29T14:26:03.528Z,40.70
2022-11-29T14:28:39.539Z,43.75
2022-11-29T14:31:32.246Z,39.90
2022-11-29T14:34:14.360Z,42.78
2022-11-29T14:36:55.345Z,40.22
2022-11-29T14:39:47.420Z,42.42
2022-11-29T14:42:23.616Z,43.67
2022-11-29T14:45:01.614Z,45.83
2022-11-29T14:47:39.223Z,43.75
2022-11-29T14:50:31.535Z,49.70
2022-11-29T14:53:07.793Z,46.38
2022-11-29T14:55:43.218Z,58.03
2022-11-29T14:58:19.933Z,45.95
2022-11-29T15:01:08.131Z,47.13
2022-11-29T15:03:48.951Z,43.58
2022-11-29T15:06:28.247Z,44.67
2022-11-29T15:09:07.681Z,47.10
2022-11-29T15:11:59.321Z,45.20
2022-11-29T15:14:50.351Z,44.92
2022-11-29T15:17:32.438Z,44.53
2022-11-29T15:20:27.960Z,43.20
2022-11-29T15:23:04.704Z,46.75
2022-11-29T15:25:52.770Z,46.60
2022-11-29T15:28:28.200Z,46.08
2022-11-29T15:31:08.665Z,42.15
2022-11-29T15:33:45.415Z,44.67
2022-11-29T15:36:22.138Z,46.95
2022-11-29T15:38:59.527Z,45.25
2022-11-29T15:41:35.801Z,45.65
2022-11-29T15:44:22.389Z,49.35
2022-11-29T15:46:55.428Z,42.75
2022-11-29T15:49:30.990Z,46.38
2022-11-29T15:52:16.981Z,42.28
2022-11-29T15:55:00.515Z,44.22
2022-11-29T15:57:42.367Z,52.22
2022-11-29T16:00:20.816Z,45.60
2022-11-29T16:03:01.767Z,44.20
2022-11-29T16:05:37.698Z,44.30
2022-11-29T16:08:19.975Z,43.33
2022-11-29T16:10:53.663Z,43.35
2022-11-29T16:13:44.095Z,45.95
2022-11-29T16:16:24.010Z,45.70
2022-11-29T16:19:20.392Z,46.60
2022-11-29T16:22:09.806Z,45.45
2022-11-29T16:25:01.955Z,66.00
2022-11-29T16:27:36.766Z,46.95
2022-11-29T16:30:23.004Z,55.63
2022-11-29T16:32:59.675Z,43.97
2022-11-29T16:35:36.281Z,43.85
2022-11-29T16:38:21.117Z,43.30
2022-11-29T16:41:22.037Z,47.33
2022-11-29T16:43:57.748Z,46.88
2022-11-29T16:46:34.793Z,32.30
2022-11-29T16:49:38.075Z,45.72
2022-11-29T16:52:28.000Z,42.42
2022-11-29T16:55:02.124Z,47.13
2022-11-29T16:57:38.723Z,45.80
2022-11-29T17:00:28.819Z,45.40
2022-11-29T17:03:01.945Z,42.53
2022-11-29T17:05:43.152Z,44.30
2022-11-29T17:08:17.589Z,43.72
2022-11-29T17:10:50.103Z,45.13
2022-11-29T17:13:23.692Z,44.75
2022-11-29T17:15:57.932Z,43.75
2022-11-29T17:18:30.777Z,43.10
2022-11-29T17:21:05.340Z,45.55
2022-11-29T17:26:10.949Z,45.58
2022-11-29T17:28:45.498Z,46.50
2022-11-29T17:31:22.251Z,41.50
2022-11-29T17:33:55.162Z,56.00
2022-11-29T17:36:28.111Z,50.33
2022-11-29T17:39:01.640Z,46.53
2022-11-29T17:41:37.982Z,44.88
2022-11-29T17:44:12.221Z,44.90
2022-11-29T17:46:44.779Z,49.70
2022-11-29T17:49:18.948Z,50.28
2022-11-29T17:51:53.110Z,45.85
2022-11-29T17:54:26.760Z,50.13
2022-11-29T17:57:01.101Z,73.88
2022-11-29T17:59:34.028Z,82.68
2022-11-29T18:02:06.697Z,66.88
2022-11-29T18:04:42.760Z,59.22
2022-11-29T18:07:17.639Z,63.70
2022-11-29T18:09:50.945Z,58.47
2022-11-29T18:12:24.538Z,52.80
2022-11-29T18:14:57.126Z,48.85
2022-11-29T18:17:29.889Z,48.30
2022-11-29T18:20:02.533Z,48.13
2022-11-29T18:22:35.369Z,51.63
2022-11-29T18:25:37.018Z,51.08
2022-11-29T18:28:02.462Z,53.97
2022-11-29T18:30:35.895Z,51.60
2022-11-29T18:33:08.537Z,51.55
2022-11-29T18:35:41.168Z,50.90
2022-11-29T18:38:15.587Z,52.05
2022-11-29T18:40:50.399Z,50.75
2022-11-29T18:43:23.615Z,49.42
2022-11-29T18:45:56.211Z,52.67
2022-11-29T18:48:30.774Z,51.17
2022-11-29T18:51:05.454Z,50.20
2022-11-29T18:53:39.611Z,47.20
2022-11-29T18:56:15.954Z,50.25
2022-11-29T18:58:58.145Z,48.08
2022-11-29T19:01:34.668Z,49.53
2022-11-29T19:04:09.693Z,51.30
2022-11-29T19:06:42.772Z,48.83
2022-11-29T19:09:21.112Z,49.72
2022-11-29T19:11:54.135Z,47.88
2022-11-29T19:14:26.713Z,47.55
2022-11-29T19:16:59.806Z,49.30
2022-11-29T19:19:32.455Z,50.72
2022-11-29T19:22:05.318Z,51.50
2022-11-29T19:24:38.327Z,50.35
2022-11-29T19:27:10.873Z,56.05
2022-11-29T19:29:43.399Z,55.72
2022-11-29T19:32:15.931Z,51.00
2022-11-29T19:34:49.473Z,51.17
2022-11-29T19:37:22.117Z,50.70
2022-11-29T19:39:54.626Z,51.85
2022-11-29T19:42:27.120Z,48.50
2022-11-29T19:47:53.164Z,52.22
2022-11-29T19:50:26.001Z,52.35
2022-11-29T19:52:59.635Z,52.33
2022-11-29T19:55:33.983Z,54.60
2022-11-29T19:58:06.707Z,65.47
2022-11-29T20:00:39.238Z,61.50
2022-11-29T20:03:12.381Z,46.92
2022-11-29T20:05:54.741Z,46.33
2022-11-29T20:08:27.741Z,48.72
2022-11-29T20:11:10.747Z,55.20
2022-11-29T20:13:45.768Z,53.10
2022-11-29T20:16:19.645Z,52.85
2022-11-29T20:18:53.164Z,44.88
2022-11-29T20:21:28.961Z,48.90
2022-11-29T20:24:04.618Z,47.30
2022-11-29T20:26:40.439Z,47.00
2022-11-29T20:31:51.035Z,44.05
2022-11-29T20:34:24.726Z,47.33
2022-11-29T20:37:20.037Z,48.75
2022-11-29T20:40:11.311Z,49.97
2022-11-29T20:42:46.662Z,45.30
2022-11-29T20:45:20.383Z,50.97
2022-11-29T20:47:59.649Z,44.50
2022-11-29T20:50:33.075Z,47.67
2022-11-29T20:53:23.895Z,45.90
2022-11-29T20:55:56.644Z,47.97
2022-11-29T20:58:29.464Z,50.05
2022-11-29T21:01:03.768Z,55.15
2022-11-29T21:03:36.611Z,48.37
2022-11-29T21:06:09.425Z,47.15
2022-11-29T21:08:43.109Z,48.10
2022-11-29T21:11:16.313Z,49.72
2022-11-29T21:13:50.076Z,55.03
2022-11-29T21:16:31.902Z,55.65
2022-11-29T21:19:04.994Z,46.78
2022-11-29T21:21:47.602Z,45.70
2022-11-29T21:24:43.268Z,46.30
2022-11-29T21:27:21.277Z,43.83
2022-11-29T21:29:55.008Z,44.50
2022-11-29T21:32:28.565Z,48.47
2022-11-29T21:35:01.134Z,49.22
2022-11-29T21:37:33.695Z,43.83
2022-11-29T21:40:07.872Z,49.35
2022-11-29T21:42:40.955Z,44.58
2022-11-29T21:45:15.615Z,42.85
2022-11-29T21:50:22.714Z,40.20
2022-11-29T21:52:55.308Z,40.70
2022-11-29T21:55:32.025Z,43.15
2022-11-29T21:58:05.228Z,43.88
2022-11-29T22:00:37.912Z,40.47
2022-11-29T22:03:10.573Z,40.80
2022-11-29T22:05:43.107Z,42.58
2022-11-29T22:08:15.947Z,41.85
2022-11-29T22:10:48.459Z,41.03
2022-11-29T22:13:21.166Z,39.50
2022-11-29T22:15:53.706Z,40.13
2022-11-29T22:18:28.798Z,37.75
2022-11-29T22:21:05.379Z,44.47
2022-11-29T22:23:37.980Z,39.70
2022-11-29T22:26:10.510Z,43.95
2022-11-29T22:28:43.047Z,45.75
2022-11-29T22:31:15.575Z,59.47
2022-11-29T22:33:48.140Z,62.35
2022-11-29T22:36:20.644Z,47.60
2022-11-29T22:38:53.218Z,39.30
2022-11-29T22:41:25.984Z,38.67
2022-11-29T22:43:58.879Z,39.85
2022-11-29T22:46:32.181Z,36.95
2022-11-29T22:49:04.809Z,42.75
2022-11-29T22:51:39.337Z,40.50
2022-11-29T22:54:15.607Z,28.67
2022-11-29T22:56:48.327Z,38.85
2022-11-29T22:59:20.899Z,37.90
2022-11-29T23:01:53.392Z,38.83
2022-11-29T23:04:26.243Z,39.05
2022-11-29T23:06:58.890Z,38.47
2022-11-29T23:09:31.496Z,41.15
2022-11-29T23:12:04.324Z,38.78
2022-11-29T23:14:36.891Z,40.38
2022-11-29T23:17:09.389Z,41.75
2022-11-29T23:19:42.439Z,40.63
2022-11-29T23:22:16.247Z,39.45
2022-11-29T23:24:48.918Z,38.72
2022-11-29T23:27:21.590Z,40.38
2022-11-29T23:29:54.418Z,40.53
2022-11-29T23:32:27.095Z,41.08
2022-11-29T23:34:59.733Z,41.40
2022-11-29T23:37:32.275Z,39.08
2022-11-29T23:40:06.012Z,41.05
2022-11-29T23:42:39.738Z,39.50
2022-11-29T23:45:13.998Z,41.03
2022-11-29T23:47:46.518Z,40.20
2022-11-29T23:50:19.118Z,40.65
2022-11-29T23:52:54.997Z,38.97
2022-11-29T23:55:28.066Z,39.45
2022-11-29T23:58:01.637Z,41.90
